Strona główna
METAR-TAF:

METAR-TAF

Lotnisko :

Brooks Field

Marshall, Michigan, Stany Zjednoczone

Szerokość geograficzna: 42-15-04N, Długość geograficzna: 084-57-20W, wysokość: 287 m

Aktualna obserwacja pogody

Raport powstał 21 minut temu, godzina 14:15 UTC
Wiatr 4 kt od wschodnio-północny wschód
Temperatura 23°C
Wilgotność 69%
Ciśnienie 1021 hPa
Widzialność: 16.1 km
bezchmurnie

METAR: KRMY 131415Z AUTO 06004KT 10SM CLR 23/17 A3016 RMK AO2 T02290166

czas: 10:36 (14:36 UTC)


TAF: brakujący

Obserwacja i prognoza pogody dla ponad 4000 lotnisk (raport METAR i TAF).

Dostępne stacje oznaczono żółtymi i czerwonymi punktami na mapie.

Najedź kursorem aby zobaczyć nazwę stacji.

Kliknij aby zobaczyć obserwacje i prognozy pogody.

Aby zmienić mapę: kliknij na zielony przycisk z czarnym krzyżykiem, aby powiększyć; na zielony przycisk z myślnikiem, aby pomniejszyć; na zielone strzałki, aby przejść do map sąsiednich.


METAR-TAF: